sensor_id;sensor_type;location;lat;lon;timestamp;P1;durP1;ratioP1;P2;durP2;ratioP2
793;SDS011;380;48.738;9.214;2022-09-28T00:01:37;1.63;;;0.70;;
793;SDS011;380;48.738;9.214;2022-09-28T00:04:08;1.05;;;0.63;;
793;SDS011;380;48.738;9.214;2022-09-28T00:06:58;1.70;;;0.82;;
793;SDS011;380;48.738;9.214;2022-09-28T00:09:25;0.90;;;0.60;;
793;SDS011;380;48.738;9.214;2022-09-28T00:15:02;1.45;;;0.70;;
793;SDS011;380;48.738;9.214;2022-09-28T00:20:23;0.80;;;0.40;;
793;SDS011;380;48.738;9.214;2022-09-28T00:26:05;2.75;;;0.90;;
793;SDS011;380;48.738;9.214;2022-09-28T00:31:38;1.02;;;0.52;;
793;SDS011;380;48.738;9.214;2022-09-28T00:34:12;1.27;;;0.73;;
793;SDS011;380;48.738;9.214;2022-09-28T00:36:56;0.63;;;0.38;;
793;SDS011;380;48.738;9.214;2022-09-28T00:39:37;0.90;;;0.45;;
793;SDS011;380;48.738;9.214;2022-09-28T00:42:21;1.70;;;0.70;;
793;SDS011;380;48.738;9.214;2022-09-28T00:54:13;4.13;;;0.80;;
793;SDS011;380;48.738;9.214;2022-09-28T00:56:44;3.33;;;1.30;;
793;SDS011;380;48.738;9.214;2022-09-28T00:59:18;2.00;;;0.70;;
793;SDS011;380;48.738;9.214;2022-09-28T01:02:01;2.75;;;0.85;;
793;SDS011;380;48.738;9.214;2022-09-28T01:04:49;0.77;;;0.43;;
793;SDS011;380;48.738;9.214;2022-09-28T01:07:31;3.13;;;0.90;;
793;SDS011;380;48.738;9.214;2022-09-28T01:10:01;1.27;;;0.65;;
793;SDS011;380;48.738;9.214;2022-09-28T01:12:48;1.15;;;0.57;;
793;SDS011;380;48.738;9.214;2022-09-28T01:15:27;0.50;;;0.20;;
793;SDS011;380;48.738;9.214;2022-09-28T01:28:42;0.98;;;0.43;;
793;SDS011;380;48.738;9.214;2022-09-28T01:31:18;6.47;;;0.63;;
793;SDS011;380;48.738;9.214;2022-09-28T01:39:35;0.77;;;0.30;;
793;SDS011;380;48.738;9.214;2022-09-28T01:42:31;1.55;;;0.63;;
793;SDS011;380;48.738;9.214;2022-09-28T01:45:06;2.03;;;0.70;;
793;SDS011;380;48.738;9.214;2022-09-28T01:47:38;2.20;;;0.85;;
793;SDS011;380;48.738;9.214;2022-09-28T01:50:17;1.02;;;0.57;;
793;SDS011;380;48.738;9.214;2022-09-28T01:53:03;0.95;;;0.52;;
793;SDS011;380;48.738;9.214;2022-09-28T01:55:46;2.25;;;0.68;;
793;SDS011;380;48.738;9.214;2022-09-28T01:58:17;1.33;;;0.85;;
793;SDS011;380;48.738;9.214;2022-09-28T02:01:11;2.65;;;0.57;;
793;SDS011;380;48.738;9.214;2022-09-28T02:10:06;0.80;;;0.47;;
793;SDS011;380;48.738;9.214;2022-09-28T02:12:53;3.00;;;0.95;;
793;SDS011;380;48.738;9.214;2022-09-28T02:15:25;1.42;;;0.70;;
793;SDS011;380;48.738;9.214;2022-09-28T02:18:08;1.58;;;0.65;;
793;SDS011;380;48.738;9.214;2022-09-28T02:24:05;4.03;;;1.20;;
793;SDS011;380;48.738;9.214;2022-09-28T02:26:44;1.00;;;0.55;;
793;SDS011;380;48.738;9.214;2022-09-28T02:32:24;0.90;;;0.60;;
793;SDS011;380;48.738;9.214;2022-09-28T02:35:07;2.13;;;0.88;;
793;SDS011;380;48.738;9.214;2022-09-28T02:37:40;6.63;;;1.13;;
793;SDS011;380;48.738;9.214;2022-09-28T02:40:24;4.00;;;1.55;;
793;SDS011;380;48.738;9.214;2022-09-28T02:56:46;3.72;;;1.02;;
793;SDS011;380;48.738;9.214;2022-09-28T03:07:26;2.63;;;0.90;;
793;SDS011;380;48.738;9.214;2022-09-28T03:12:51;2.75;;;0.88;;
793;SDS011;380;48.738;9.214;2022-09-28T03:15:23;1.52;;;0.80;;
793;SDS011;380;48.738;9.214;2022-09-28T03:18:11;1.60;;;0.70;;
793;SDS011;380;48.738;9.214;2022-09-28T03:20:49;2.22;;;0.68;;
793;SDS011;380;48.738;9.214;2022-09-28T03:23:30;3.70;;;1.30;;
793;SDS011;380;48.738;9.214;2022-09-28T03:26:12;2.28;;;0.85;;
793;SDS011;380;48.738;9.214;2022-09-28T03:28:45;2.67;;;0.80;;
793;SDS011;380;48.738;9.214;2022-09-28T03:31:11;6.17;;;1.30;;
793;SDS011;380;48.738;9.214;2022-09-28T03:33:48;1.50;;;0.75;;
793;SDS011;380;48.738;9.214;2022-09-28T03:39:10;3.00;;;0.68;;
793;SDS011;380;48.738;9.214;2022-09-28T03:42:06;3.35;;;1.20;;
793;SDS011;380;48.738;9.214;2022-09-28T03:44:38;3.33;;;1.13;;
793;SDS011;380;48.738;9.214;2022-09-28T03:47:10;3.22;;;0.98;;
793;SDS011;380;48.738;9.214;2022-09-28T03:49:59;4.40;;;1.27;;
793;SDS011;380;48.738;9.214;2022-09-28T03:52:50;1.92;;;1.02;;
793;SDS011;380;48.738;9.214;2022-09-28T03:55:20;1.55;;;0.75;;
793;SDS011;380;48.738;9.214;2022-09-28T03:58:21;1.25;;;0.57;;
793;SDS011;380;48.738;9.214;2022-09-28T04:00:42;1.60;;;0.60;;
793;SDS011;380;48.738;9.214;2022-09-28T04:03:43;4.20;;;1.05;;
793;SDS011;380;48.738;9.214;2022-09-28T04:06:23;0.98;;;0.47;;
793;SDS011;380;48.738;9.214;2022-09-28T04:09:00;2.03;;;0.70;;
793;SDS011;380;48.738;9.214;2022-09-28T04:17:28;1.65;;;0.63;;
793;SDS011;380;48.738;9.214;2022-09-28T04:25:54;3.33;;;0.55;;
793;SDS011;380;48.738;9.214;2022-09-28T04:28:33;1.63;;;0.73;;
793;SDS011;380;48.738;9.214;2022-09-28T04:34:22;1.55;;;0.50;;
793;SDS011;380;48.738;9.214;2022-09-28T04:36:51;0.52;;;0.30;;
793;SDS011;380;48.738;9.214;2022-09-28T04:39:17;2.83;;;0.80;;
793;SDS011;380;48.738;9.214;2022-09-28T04:41:55;0.20;;;0.20;;
793;SDS011;380;48.738;9.214;2022-09-28T04:44:38;1.10;;;0.15;;
793;SDS011;380;48.738;9.214;2022-09-28T04:47:18;1.27;;;0.45;;
793;SDS011;380;48.738;9.214;2022-09-28T04:50:08;0.52;;;0.35;;
793;SDS011;380;48.738;9.214;2022-09-28T04:52:38;0.60;;;0.20;;
793;SDS011;380;48.738;9.214;2022-09-28T04:58:17;0.63;;;0.25;;
793;SDS011;380;48.738;9.214;2022-09-28T05:03:43;0.57;;;0.30;;
793;SDS011;380;48.738;9.214;2022-09-28T05:06:15;0.57;;;0.05;;
793;SDS011;380;48.738;9.214;2022-09-28T05:08:57;0.43;;;0.25;;
793;SDS011;380;48.738;9.214;2022-09-28T05:11:26;2.20;;;0.50;;
793;SDS011;380;48.738;9.214;2022-09-28T05:20:39;0.55;;;0.35;;
793;SDS011;380;48.738;9.214;2022-09-28T05:23:26;0.65;;;0.30;;
793;SDS011;380;48.738;9.214;2022-09-28T05:26:11;0.90;;;0.45;;
793;SDS011;380;48.738;9.214;2022-09-28T05:28:46;0.50;;;0.30;;
793;SDS011;380;48.738;9.214;2022-09-28T05:31:33;1.35;;;0.40;;
793;SDS011;380;48.738;9.214;2022-09-28T05:39:44;2.80;;;0.30;;
793;SDS011;380;48.738;9.214;2022-09-28T05:42:25;0.68;;;0.30;;
793;SDS011;380;48.738;9.214;2022-09-28T05:45:11;3.25;;;0.40;;
793;SDS011;380;48.738;9.214;2022-09-28T05:47:41;0.85;;;0.35;;
793;SDS011;380;48.738;9.214;2022-09-28T05:50:16;2.42;;;0.40;;
793;SDS011;380;48.738;9.214;2022-09-28T05:52:45;0.73;;;0.40;;
793;SDS011;380;48.738;9.214;2022-09-28T05:58:18;1.58;;;0.60;;
793;SDS011;380;48.738;9.214;2022-09-28T06:04:16;2.78;;;0.70;;
793;SDS011;380;48.738;9.214;2022-09-28T06:07:09;3.67;;;1.10;;
793;SDS011;380;48.738;9.214;2022-09-28T06:15:55;1.35;;;0.30;;
793;SDS011;380;48.738;9.214;2022-09-28T06:18:25;1.63;;;0.63;;
793;SDS011;380;48.738;9.214;2022-09-28T06:26:16;1.08;;;0.50;;
793;SDS011;380;48.738;9.214;2022-09-28T06:29:08;1.58;;;0.63;;
793;SDS011;380;48.738;9.214;2022-09-28T06:31:44;0.75;;;0.45;;
793;SDS011;380;48.738;9.214;2022-09-28T06:34:42;1.00;;;0.50;;
793;SDS011;380;48.738;9.214;2022-09-28T06:37:28;3.85;;;0.90;;
793;SDS011;380;48.738;9.214;2022-09-28T06:40:17;2.88;;;0.70;;
793;SDS011;380;48.738;9.214;2022-09-28T06:45:49;1.88;;;0.45;;
793;SDS011;380;48.738;9.214;2022-09-28T06:51:16;2.25;;;0.88;;
793;SDS011;380;48.738;9.214;2022-09-28T06:53:50;5.45;;;1.05;;
793;SDS011;380;48.738;9.214;2022-09-28T06:56:20;1.67;;;0.80;;
793;SDS011;380;48.738;9.214;2022-09-28T06:58:56;2.92;;;0.75;;
793;SDS011;380;48.738;9.214;2022-09-28T07:01:29;1.70;;;0.70;;
793;SDS011;380;48.738;9.214;2022-09-28T07:09:40;3.33;;;1.10;;
793;SDS011;380;48.738;9.214;2022-09-28T07:12:12;2.70;;;1.13;;
793;SDS011;380;48.738;9.214;2022-09-28T07:14:58;2.63;;;1.27;;
793;SDS011;380;48.738;9.214;2022-09-28T07:17:34;3.53;;;1.35;;
793;SDS011;380;48.738;9.214;2022-09-28T07:20:20;3.55;;;1.48;;
793;SDS011;380;48.738;9.214;2022-09-28T07:22:56;3.33;;;1.48;;
793;SDS011;380;48.738;9.214;2022-09-28T07:25:49;3.08;;;1.42;;
793;SDS011;380;48.738;9.214;2022-09-28T07:31:02;4.60;;;1.42;;
793;SDS011;380;48.738;9.214;2022-09-28T07:33:39;1.60;;;1.10;;
793;SDS011;380;48.738;9.214;2022-09-28T07:36:16;2.67;;;1.48;;
793;SDS011;380;48.738;9.214;2022-09-28T07:39:02;2.72;;;1.60;;
793;SDS011;380;48.738;9.214;2022-09-28T07:41:57;2.20;;;1.15;;
793;SDS011;380;48.738;9.214;2022-09-28T07:44:38;1.48;;;0.85;;
793;SDS011;380;48.738;9.214;2022-09-28T07:47:19;2.75;;;1.33;;
793;SDS011;380;48.738;9.214;2022-09-28T07:50:23;2.67;;;1.40;;
793;SDS011;380;48.738;9.214;2022-09-28T07:52:54;4.15;;;1.73;;
793;SDS011;380;48.738;9.214;2022-09-28T07:55:34;2.42;;;1.27;;
793;SDS011;380;48.738;9.214;2022-09-28T07:58:26;4.20;;;1.70;;
793;SDS011;380;48.738;9.214;2022-09-28T08:01:01;4.07;;;1.30;;
793;SDS011;380;48.738;9.214;2022-09-28T08:03:47;2.92;;;1.65;;
793;SDS011;380;48.738;9.214;2022-09-28T08:06:20;4.53;;;1.42;;
793;SDS011;380;48.738;9.214;2022-09-28T08:09:10;2.45;;;1.10;;
793;SDS011;380;48.738;9.214;2022-09-28T08:11:55;3.53;;;1.45;;
793;SDS011;380;48.738;9.214;2022-09-28T08:14:42;1.73;;;1.20;;
793;SDS011;380;48.738;9.214;2022-09-28T08:17:12;2.28;;;1.48;;
793;SDS011;380;48.738;9.214;2022-09-28T08:23:08;6.03;;;1.95;;
793;SDS011;380;48.738;9.214;2022-09-28T08:31:49;3.67;;;1.60;;
793;SDS011;380;48.738;9.214;2022-09-28T08:34:21;2.92;;;1.38;;
793;SDS011;380;48.738;9.214;2022-09-28T08:37:03;2.15;;;1.63;;
793;SDS011;380;48.738;9.214;2022-09-28T08:39:29;3.10;;;1.73;;
793;SDS011;380;48.738;9.214;2022-09-28T08:51:09;2.60;;;1.40;;
793;SDS011;380;48.738;9.214;2022-09-28T08:54:12;3.47;;;1.65;;
793;SDS011;380;48.738;9.214;2022-09-28T08:57:20;9.00;;;2.38;;
793;SDS011;380;48.738;9.214;2022-09-28T09:00:04;2.92;;;1.90;;
793;SDS011;380;48.738;9.214;2022-09-28T09:02:53;7.43;;;1.95;;
793;SDS011;380;48.738;9.214;2022-09-28T09:05:47;2.10;;;1.30;;
793;SDS011;380;48.738;9.214;2022-09-28T09:19:50;4.75;;;1.85;;
793;SDS011;380;48.738;9.214;2022-09-28T09:25:16;3.08;;;1.58;;
793;SDS011;380;48.738;9.214;2022-09-28T09:30:26;3.45;;;1.40;;
793;SDS011;380;48.738;9.214;2022-09-28T09:36:11;2.38;;;1.38;;
793;SDS011;380;48.738;9.214;2022-09-28T09:38:59;2.90;;;1.55;;
793;SDS011;380;48.738;9.214;2022-09-28T09:47:19;3.55;;;1.52;;
793;SDS011;380;48.738;9.214;2022-09-28T09:53:37;4.57;;;1.60;;
793;SDS011;380;48.738;9.214;2022-09-28T09:59:05;4.10;;;1.85;;
793;SDS011;380;48.738;9.214;2022-09-28T10:01:40;2.28;;;1.52;;
793;SDS011;380;48.738;9.214;2022-09-28T10:04:20;4.47;;;2.22;;
793;SDS011;380;48.738;9.214;2022-09-28T10:07:05;3.03;;;1.70;;
793;SDS011;380;48.738;9.214;2022-09-28T10:09:55;6.85;;;1.80;;
793;SDS011;380;48.738;9.214;2022-09-28T10:12:38;5.15;;;2.10;;
793;SDS011;380;48.738;9.214;2022-09-28T10:15:06;2.22;;;1.42;;
793;SDS011;380;48.738;9.214;2022-09-28T10:17:39;3.35;;;1.60;;
793;SDS011;380;48.738;9.214;2022-09-28T10:20:16;1.95;;;1.38;;
793;SDS011;380;48.738;9.214;2022-09-28T10:25:39;4.35;;;1.70;;
793;SDS011;380;48.738;9.214;2022-09-28T10:30:49;3.67;;;1.80;;
793;SDS011;380;48.738;9.214;2022-09-28T10:33:32;4.30;;;2.22;;
793;SDS011;380;48.738;9.214;2022-09-28T10:35:59;2.17;;;1.17;;
793;SDS011;380;48.738;9.214;2022-09-28T10:38:32;4.03;;;1.92;;
793;SDS011;380;48.738;9.214;2022-09-28T10:41:23;3.55;;;1.98;;
793;SDS011;380;48.738;9.214;2022-09-28T10:44:00;3.17;;;1.65;;
793;SDS011;380;48.738;9.214;2022-09-28T10:49:30;3.20;;;1.42;;
793;SDS011;380;48.738;9.214;2022-09-28T10:52:26;4.25;;;2.00;;
793;SDS011;380;48.738;9.214;2022-09-28T10:57:56;2.72;;;1.73;;
793;SDS011;380;48.738;9.214;2022-09-28T11:00:38;2.42;;;2.15;;
793;SDS011;380;48.738;9.214;2022-09-28T11:03:15;3.97;;;2.13;;
793;SDS011;380;48.738;9.214;2022-09-28T11:08:47;2.80;;;1.65;;
793;SDS011;380;48.738;9.214;2022-09-28T11:11:45;4.10;;;2.20;;
793;SDS011;380;48.738;9.214;2022-09-28T11:14:25;4.30;;;1.50;;
793;SDS011;380;48.738;9.214;2022-09-28T11:19:40;5.05;;;1.65;;
793;SDS011;380;48.738;9.214;2022-09-28T11:22:31;3.72;;;1.65;;
793;SDS011;380;48.738;9.214;2022-09-28T11:27:55;4.47;;;0.93;;
793;SDS011;380;48.738;9.214;2022-09-28T11:30:33;7.13;;;1.45;;
793;SDS011;380;48.738;9.214;2022-09-28T11:44:53;2.03;;;1.23;;
793;SDS011;380;48.738;9.214;2022-09-28T11:58:56;4.90;;;1.40;;
793;SDS011;380;48.738;9.214;2022-09-28T12:04:28;3.50;;;1.27;;
793;SDS011;380;48.738;9.214;2022-09-28T12:07:16;2.20;;;1.00;;
793;SDS011;380;48.738;9.214;2022-09-28T12:12:53;4.82;;;1.20;;
793;SDS011;380;48.738;9.214;2022-09-28T12:23:53;2.00;;;1.20;;
793;SDS011;380;48.738;9.214;2022-09-28T12:26:51;2.28;;;1.38;;
793;SDS011;380;48.738;9.214;2022-09-28T12:29:27;6.35;;;0.95;;
793;SDS011;380;48.738;9.214;2022-09-28T12:32:09;3.53;;;1.38;;
793;SDS011;380;48.738;9.214;2022-09-28T12:34:39;2.40;;;1.17;;
793;SDS011;380;48.738;9.214;2022-09-28T12:37:26;1.63;;;0.80;;
793;SDS011;380;48.738;9.214;2022-09-28T13:04:58;3.33;;;1.70;;
793;SDS011;380;48.738;9.214;2022-09-28T13:10:53;5.68;;;1.27;;
793;SDS011;380;48.738;9.214;2022-09-28T13:13:42;1.52;;;0.73;;
793;SDS011;380;48.738;9.214;2022-09-28T13:16:34;4.63;;;0.80;;
793;SDS011;380;48.738;9.214;2022-09-28T13:24:37;4.05;;;0.95;;
793;SDS011;380;48.738;9.214;2022-09-28T13:27:12;2.25;;;1.27;;
793;SDS011;380;48.738;9.214;2022-09-28T13:29:43;7.07;;;0.88;;
793;SDS011;380;48.738;9.214;2022-09-28T13:32:18;4.47;;;0.90;;
793;SDS011;380;48.738;9.214;2022-09-28T13:35:16;1.15;;;0.60;;
793;SDS011;380;48.738;9.214;2022-09-28T13:41:08;2.78;;;1.02;;
793;SDS011;380;48.738;9.214;2022-09-28T14:02:33;6.28;;;1.15;;
793;SDS011;380;48.738;9.214;2022-09-28T14:16:48;2.80;;;0.75;;
793;SDS011;380;48.738;9.214;2022-09-28T14:19:23;2.05;;;0.77;;
793;SDS011;380;48.738;9.214;2022-09-28T14:21:56;2.83;;;0.80;;
793;SDS011;380;48.738;9.214;2022-09-28T14:24:50;1.15;;;0.70;;
793;SDS011;380;48.738;9.214;2022-09-28T14:30:44;5.50;;;1.70;;
793;SDS011;380;48.738;9.214;2022-09-28T14:33:16;1.65;;;1.00;;
793;SDS011;380;48.738;9.214;2022-09-28T14:39:30;1.25;;;0.60;;
793;SDS011;380;48.738;9.214;2022-09-28T14:42:24;1.42;;;0.68;;
793;SDS011;380;48.738;9.214;2022-09-28T14:47:41;2.00;;;0.90;;
793;SDS011;380;48.738;9.214;2022-09-28T14:50:26;1.70;;;0.50;;
793;SDS011;380;48.738;9.214;2022-09-28T14:53:11;1.45;;;0.65;;
793;SDS011;380;48.738;9.214;2022-09-28T14:55:49;3.80;;;1.02;;
793;SDS011;380;48.738;9.214;2022-09-28T14:58:33;2.42;;;0.85;;
793;SDS011;380;48.738;9.214;2022-09-28T15:01:02;2.42;;;0.88;;
793;SDS011;380;48.738;9.214;2022-09-28T15:03:47;2.08;;;1.27;;
793;SDS011;380;48.738;9.214;2022-09-28T15:08:49;1.23;;;0.70;;
793;SDS011;380;48.738;9.214;2022-09-28T15:11:27;2.08;;;0.60;;
793;SDS011;380;48.738;9.214;2022-09-28T15:14:07;2.55;;;0.75;;
793;SDS011;380;48.738;9.214;2022-09-28T15:16:37;1.27;;;0.52;;
793;SDS011;380;48.738;9.214;2022-09-28T15:21:57;3.60;;;0.93;;
793;SDS011;380;48.738;9.214;2022-09-28T15:24:36;2.65;;;0.95;;
793;SDS011;380;48.738;9.214;2022-09-28T15:27:19;2.03;;;0.77;;
793;SDS011;380;48.738;9.214;2022-09-28T15:32:40;1.70;;;0.98;;
793;SDS011;380;48.738;9.214;2022-09-28T15:35:22;2.08;;;0.98;;
793;SDS011;380;48.738;9.214;2022-09-28T15:38:01;1.73;;;0.75;;
793;SDS011;380;48.738;9.214;2022-09-28T15:40:33;0.77;;;0.50;;
793;SDS011;380;48.738;9.214;2022-09-28T15:49:02;1.48;;;0.95;;
793;SDS011;380;48.738;9.214;2022-09-28T15:54:44;2.70;;;0.90;;
793;SDS011;380;48.738;9.214;2022-09-28T16:00:25;1.85;;;0.75;;
793;SDS011;380;48.738;9.214;2022-09-28T16:03:37;6.30;;;0.90;;
793;SDS011;380;48.738;9.214;2022-09-28T16:11:38;2.15;;;0.90;;
793;SDS011;380;48.738;9.214;2022-09-28T16:14:18;4.85;;;1.30;;
793;SDS011;380;48.738;9.214;2022-09-28T16:17:29;1.98;;;1.17;;
793;SDS011;380;48.738;9.214;2022-09-28T16:20:02;1.17;;;0.50;;
793;SDS011;380;48.738;9.214;2022-09-28T16:28:25;2.13;;;0.88;;
793;SDS011;380;48.738;9.214;2022-09-28T16:36:40;2.50;;;0.82;;
793;SDS011;380;48.738;9.214;2022-09-28T16:39:16;7.78;;;0.95;;
793;SDS011;380;48.738;9.214;2022-09-28T16:41:54;4.60;;;0.85;;
793;SDS011;380;48.738;9.214;2022-09-28T16:44:39;2.78;;;0.77;;
793;SDS011;380;48.738;9.214;2022-09-28T16:47:09;1.67;;;0.57;;
793;SDS011;380;48.738;9.214;2022-09-28T16:49:49;3.53;;;1.60;;
793;SDS011;380;48.738;9.214;2022-09-28T16:52:28;6.20;;;3.03;;
793;SDS011;380;48.738;9.214;2022-09-28T16:55:19;2.78;;;1.20;;
793;SDS011;380;48.738;9.214;2022-09-28T16:58:10;1.90;;;1.05;;
793;SDS011;380;48.738;9.214;2022-09-28T17:00:40;5.43;;;0.88;;
793;SDS011;380;48.738;9.214;2022-09-28T17:03:21;3.25;;;1.33;;
793;SDS011;380;48.738;9.214;2022-09-28T17:05:50;1.98;;;1.08;;
793;SDS011;380;48.738;9.214;2022-09-28T17:08:24;6.72;;;1.77;;
793;SDS011;380;48.738;9.214;2022-09-28T17:11:19;6.75;;;1.70;;
793;SDS011;380;48.738;9.214;2022-09-28T17:14:03;1.88;;;0.98;;
793;SDS011;380;48.738;9.214;2022-09-28T17:16:35;3.50;;;1.27;;
793;SDS011;380;48.738;9.214;2022-09-28T17:22:06;4.05;;;1.38;;
793;SDS011;380;48.738;9.214;2022-09-28T17:24:58;4.28;;;1.05;;
793;SDS011;380;48.738;9.214;2022-09-28T17:27:45;2.03;;;0.90;;
793;SDS011;380;48.738;9.214;2022-09-28T17:30:14;2.10;;;1.20;;
793;SDS011;380;48.738;9.214;2022-09-28T17:32:45;3.00;;;1.35;;
793;SDS011;380;48.738;9.214;2022-09-28T17:35:15;1.92;;;1.10;;
793;SDS011;380;48.738;9.214;2022-09-28T17:37:51;1.75;;;1.13;;
793;SDS011;380;48.738;9.214;2022-09-28T17:40:26;2.60;;;1.50;;
793;SDS011;380;48.738;9.214;2022-09-28T17:42:55;2.10;;;1.30;;
793;SDS011;380;48.738;9.214;2022-09-28T17:45:25;2.95;;;1.67;;
793;SDS011;380;48.738;9.214;2022-09-28T17:48:06;3.15;;;1.60;;
793;SDS011;380;48.738;9.214;2022-09-28T17:50:44;2.55;;;1.20;;
793;SDS011;380;48.738;9.214;2022-09-28T17:56:05;6.70;;;2.60;;
793;SDS011;380;48.738;9.214;2022-09-28T17:58:39;2.85;;;1.52;;
793;SDS011;380;48.738;9.214;2022-09-28T18:01:15;3.95;;;3.47;;
793;SDS011;380;48.738;9.214;2022-09-28T18:03:57;4.80;;;2.90;;
793;SDS011;380;48.738;9.214;2022-09-28T18:06:26;5.10;;;2.45;;
793;SDS011;380;48.738;9.214;2022-09-28T18:09:18;4.68;;;2.65;;
793;SDS011;380;48.738;9.214;2022-09-28T18:11:48;4.18;;;2.80;;
793;SDS011;380;48.738;9.214;2022-09-28T18:17:12;3.42;;;1.88;;
793;SDS011;380;48.738;9.214;2022-09-28T18:19:44;2.67;;;1.90;;
793;SDS011;380;48.738;9.214;2022-09-28T18:22:15;2.75;;;1.65;;
793;SDS011;380;48.738;9.214;2022-09-28T18:24:55;4.43;;;2.15;;
793;SDS011;380;48.738;9.214;2022-09-28T18:27:23;3.78;;;2.20;;
793;SDS011;380;48.738;9.214;2022-09-28T18:30:03;4.22;;;2.13;;
793;SDS011;380;48.738;9.214;2022-09-28T18:32:40;4.07;;;2.22;;
793;SDS011;380;48.738;9.214;2022-09-28T18:35:18;3.17;;;2.63;;
793;SDS011;380;48.738;9.214;2022-09-28T18:37:53;2.97;;;2.10;;
793;SDS011;380;48.738;9.214;2022-09-28T18:40:29;4.22;;;2.40;;
793;SDS011;380;48.738;9.214;2022-09-28T18:42:59;2.85;;;2.00;;
793;SDS011;380;48.738;9.214;2022-09-28T18:45:32;5.07;;;2.17;;
793;SDS011;380;48.738;9.214;2022-09-28T18:51:13;7.68;;;2.72;;
793;SDS011;380;48.738;9.214;2022-09-28T18:53:55;4.03;;;2.45;;
793;SDS011;380;48.738;9.214;2022-09-28T18:56:39;3.35;;;1.92;;
793;SDS011;380;48.738;9.214;2022-09-28T18:59:08;8.23;;;2.42;;
793;SDS011;380;48.738;9.214;2022-09-28T19:01:39;5.07;;;2.10;;
793;SDS011;380;48.738;9.214;2022-09-28T19:04:07;2.78;;;2.10;;
793;SDS011;380;48.738;9.214;2022-09-28T19:06:59;5.10;;;2.70;;
793;SDS011;380;48.738;9.214;2022-09-28T19:09:40;9.77;;;4.88;;
793;SDS011;380;48.738;9.214;2022-09-28T19:12:15;4.13;;;3.33;;
793;SDS011;380;48.738;9.214;2022-09-28T19:20:23;5.95;;;2.13;;
793;SDS011;380;48.738;9.214;2022-09-28T19:23:01;6.22;;;2.63;;
793;SDS011;380;48.738;9.214;2022-09-28T19:25:36;4.22;;;2.28;;
793;SDS011;380;48.738;9.214;2022-09-28T19:28:08;3.38;;;2.75;;
793;SDS011;380;48.738;9.214;2022-09-28T19:30:41;4.03;;;2.13;;
793;SDS011;380;48.738;9.214;2022-09-28T19:33:09;8.93;;;3.03;;
793;SDS011;380;48.738;9.214;2022-09-28T19:41:46;3.85;;;1.70;;
793;SDS011;380;48.738;9.214;2022-09-28T19:44:18;5.27;;;2.43;;
793;SDS011;380;48.738;9.214;2022-09-28T19:47:01;4.25;;;3.10;;
793;SDS011;380;48.738;9.214;2022-09-28T19:49:45;5.35;;;2.92;;
793;SDS011;380;48.738;9.214;2022-09-28T19:52:23;6.95;;;2.63;;
793;SDS011;380;48.738;9.214;2022-09-28T19:54:56;3.80;;;2.00;;
793;SDS011;380;48.738;9.214;2022-09-28T19:57:33;3.25;;;2.03;;
793;SDS011;380;48.738;9.214;2022-09-28T20:00:11;4.70;;;2.08;;
793;SDS011;380;48.738;9.214;2022-09-28T20:02:43;3.72;;;2.17;;
793;SDS011;380;48.738;9.214;2022-09-28T20:05:25;3.20;;;1.88;;
793;SDS011;380;48.738;9.214;2022-09-28T20:10:52;3.53;;;2.05;;
793;SDS011;380;48.738;9.214;2022-09-28T20:13:38;2.72;;;2.03;;
793;SDS011;380;48.738;9.214;2022-09-28T20:16:11;3.38;;;2.08;;
793;SDS011;380;48.738;9.214;2022-09-28T20:18:45;6.85;;;3.55;;
793;SDS011;380;48.738;9.214;2022-09-28T20:21:16;3.40;;;2.00;;
793;SDS011;380;48.738;9.214;2022-09-28T20:24:11;4.35;;;2.67;;
793;SDS011;380;48.738;9.214;2022-09-28T20:29:15;3.80;;;2.25;;
793;SDS011;380;48.738;9.214;2022-09-28T20:34:46;2.13;;;1.35;;
793;SDS011;380;48.738;9.214;2022-09-28T20:37:15;2.70;;;1.80;;
793;SDS011;380;48.738;9.214;2022-09-28T20:40:15;3.65;;;2.17;;
793;SDS011;380;48.738;9.214;2022-09-28T20:42:45;2.45;;;1.55;;
793;SDS011;380;48.738;9.214;2022-09-28T20:45:40;2.95;;;2.30;;
793;SDS011;380;48.738;9.214;2022-09-28T20:48:11;4.50;;;2.67;;
793;SDS011;380;48.738;9.214;2022-09-28T20:53:40;4.97;;;2.03;;
793;SDS011;380;48.738;9.214;2022-09-28T20:56:28;3.25;;;2.35;;
793;SDS011;380;48.738;9.214;2022-09-28T20:59:05;4.75;;;2.17;;
793;SDS011;380;48.738;9.214;2022-09-28T21:02:00;5.57;;;2.65;;
793;SDS011;380;48.738;9.214;2022-09-28T21:04:34;7.45;;;3.35;;
793;SDS011;380;48.738;9.214;2022-09-28T21:07:05;6.60;;;2.40;;
793;SDS011;380;48.738;9.214;2022-09-28T21:09:59;5.75;;;2.75;;
793;SDS011;380;48.738;9.214;2022-09-28T21:12:37;3.55;;;2.85;;
793;SDS011;380;48.738;9.214;2022-09-28T21:15:10;3.75;;;1.98;;
793;SDS011;380;48.738;9.214;2022-09-28T21:17:52;4.20;;;2.35;;
793;SDS011;380;48.738;9.214;2022-09-28T21:20:33;5.30;;;2.42;;
793;SDS011;380;48.738;9.214;2022-09-28T21:23:23;5.97;;;2.42;;
793;SDS011;380;48.738;9.214;2022-09-28T21:28:43;4.05;;;1.90;;
793;SDS011;380;48.738;9.214;2022-09-28T21:31:10;4.20;;;2.80;;
793;SDS011;380;48.738;9.214;2022-09-28T21:33:42;4.00;;;1.98;;
793;SDS011;380;48.738;9.214;2022-09-28T21:36:08;6.03;;;3.80;;
793;SDS011;380;48.738;9.214;2022-09-28T21:38:41;4.10;;;2.70;;
793;SDS011;380;48.738;9.214;2022-09-28T21:41:07;4.30;;;2.17;;
793;SDS011;380;48.738;9.214;2022-09-28T21:43:35;3.08;;;2.30;;
793;SDS011;380;48.738;9.214;2022-09-28T21:46:08;3.63;;;2.23;;
793;SDS011;380;48.738;9.214;2022-09-28T21:48:58;3.33;;;2.03;;
793;SDS011;380;48.738;9.214;2022-09-28T21:51:27;4.82;;;2.80;;
793;SDS011;380;48.738;9.214;2022-09-28T21:53:57;3.17;;;2.38;;
793;SDS011;380;48.738;9.214;2022-09-28T21:59:48;3.70;;;2.58;;
793;SDS011;380;48.738;9.214;2022-09-28T22:02:29;4.32;;;2.28;;
793;SDS011;380;48.738;9.214;2022-09-28T22:05:08;4.72;;;3.65;;
793;SDS011;380;48.738;9.214;2022-09-28T22:08:01;3.80;;;2.67;;
793;SDS011;380;48.738;9.214;2022-09-28T22:10:36;3.33;;;2.17;;
793;SDS011;380;48.738;9.214;2022-09-28T22:13:12;3.80;;;2.38;;
793;SDS011;380;48.738;9.214;2022-09-28T22:15:40;4.25;;;2.28;;
793;SDS011;380;48.738;9.214;2022-09-28T22:18:27;2.80;;;2.10;;
793;SDS011;380;48.738;9.214;2022-09-28T22:24:04;4.78;;;2.55;;
793;SDS011;380;48.738;9.214;2022-09-28T22:26:37;3.22;;;2.45;;
793;SDS011;380;48.738;9.214;2022-09-28T22:29:08;2.83;;;1.83;;
793;SDS011;380;48.738;9.214;2022-09-28T22:31:36;6.80;;;3.83;;
793;SDS011;380;48.738;9.214;2022-09-28T22:34:21;4.00;;;3.15;;
793;SDS011;380;48.738;9.214;2022-09-28T22:39:41;2.90;;;2.28;;
793;SDS011;380;48.738;9.214;2022-09-28T22:42:13;3.28;;;2.50;;
793;SDS011;380;48.738;9.214;2022-09-28T22:44:45;4.15;;;2.40;;
793;SDS011;380;48.738;9.214;2022-09-28T22:47:12;4.30;;;2.83;;
793;SDS011;380;48.738;9.214;2022-09-28T22:49:39;4.22;;;2.45;;
793;SDS011;380;48.738;9.214;2022-09-28T22:55:04;5.22;;;3.22;;
793;SDS011;380;48.738;9.214;2022-09-28T22:57:48;4.97;;;2.97;;
793;SDS011;380;48.738;9.214;2022-09-28T23:06:48;3.92;;;2.33;;
793;SDS011;380;48.738;9.214;2022-09-28T23:09:01;4.68;;;2.97;;
793;SDS011;380;48.738;9.214;2022-09-28T23:11:59;4.50;;;3.22;;
793;SDS011;380;48.738;9.214;2022-09-28T23:14:38;4.28;;;2.63;;
793;SDS011;380;48.738;9.214;2022-09-28T23:17:04;4.85;;;2.97;;
793;SDS011;380;48.738;9.214;2022-09-28T23:19:31;3.45;;;2.78;;
793;SDS011;380;48.738;9.214;2022-09-28T23:25:08;3.17;;;2.33;;
793;SDS011;380;48.738;9.214;2022-09-28T23:27:53;4.75;;;2.38;;
793;SDS011;380;48.738;9.214;2022-09-28T23:30:37;4.72;;;3.28;;
793;SDS011;380;48.738;9.214;2022-09-28T23:33:30;3.55;;;2.22;;
793;SDS011;380;48.738;9.214;2022-09-28T23:36:08;4.82;;;2.28;;
793;SDS011;380;48.738;9.214;2022-09-28T23:38:40;6.68;;;2.70;;
793;SDS011;380;48.738;9.214;2022-09-28T23:44:10;5.18;;;2.85;;
793;SDS011;380;48.738;9.214;2022-09-28T23:49:44;2.97;;;2.20;;
793;SDS011;380;48.738;9.214;2022-09-28T23:52:16;3.80;;;2.42;;
793;SDS011;380;48.738;9.214;2022-09-28T23:54:57;4.22;;;2.65;;
793;SDS011;380;48.738;9.214;2022-09-28T23:57:30;3.05;;;2.15;;
